createdAt,value
2023-10-29T00:00:31.821Z,10.71
2023-10-29T00:01:34.127Z,10.69
2023-10-29T00:02:36.758Z,10.69
2023-10-29T00:03:39.187Z,10.63
2023-10-29T00:04:41.579Z,10.57
2023-10-29T00:05:44.502Z,10.57
2023-10-29T00:06:46.802Z,10.57
2023-10-29T00:07:50.225Z,10.52
2023-10-29T00:08:52.623Z,10.52
2023-10-29T00:09:55.134Z,10.59
2023-10-29T00:10:57.538Z,10.62
2023-10-29T00:11:59.837Z,10.62
2023-10-29T00:13:03.365Z,10.64
2023-10-29T00:14:05.840Z,10.62
2023-10-29T00:15:08.415Z,10.60
2023-10-29T00:16:12.572Z,10.56
2023-10-29T00:17:15.245Z,10.60
2023-10-29T00:18:19.277Z,10.56
2023-10-29T00:19:21.882Z,10.57
2023-10-29T00:20:24.137Z,10.59
2023-10-29T00:21:26.565Z,10.62
2023-10-29T00:22:29.168Z,10.59
2023-10-29T00:23:31.440Z,10.59
2023-10-29T00:24:34.083Z,10.59
2023-10-29T00:25:36.310Z,10.62
2023-10-29T00:26:38.593Z,10.56
2023-10-29T00:27:41.271Z,10.56
2023-10-29T00:28:43.488Z,10.58
2023-10-29T00:29:47.914Z,10.56
2023-10-29T00:30:50.325Z,10.58
2023-10-29T00:31:52.789Z,10.55
2023-10-29T00:32:55.462Z,10.48
2023-10-29T00:33:57.753Z,10.48
2023-10-29T00:35:00.277Z,10.48
2023-10-29T00:36:02.865Z,10.46
2023-10-29T00:37:05.454Z,10.49
2023-10-29T00:38:08.482Z,10.47
2023-10-29T00:39:10.751Z,10.33
2023-10-29T00:40:13.055Z,10.32
2023-10-29T00:41:15.509Z,10.35
2023-10-29T00:42:17.890Z,10.31
2023-10-29T00:43:20.365Z,10.27
2023-10-29T00:44:23.391Z,10.23
2023-10-29T00:45:25.662Z,10.24
2023-10-29T00:46:28.464Z,10.22
2023-10-29T00:47:31.083Z,10.23
2023-10-29T00:48:34.353Z,10.22
2023-10-29T00:49:37.443Z,10.24
2023-10-29T00:50:40.465Z,10.20
2023-10-29T00:51:44.967Z,10.23
2023-10-29T00:52:47.749Z,10.18
2023-10-29T00:53:50.075Z,10.19
2023-10-29T00:54:52.607Z,10.17
2023-10-29T00:55:55.837Z,10.19
2023-10-29T00:56:58.475Z,10.06
2023-10-29T00:58:01.267Z,10.06
2023-10-29T00:59:04.167Z,10.04
2023-10-29T01:00:07.655Z,10.02
2023-10-29T01:01:09.979Z,9.96
2023-10-29T01:02:12.703Z,9.97
2023-10-29T01:03:15.859Z,9.98
2023-10-29T01:04:18.175Z,9.96
2023-10-29T01:05:20.606Z,9.97
2023-10-29T01:06:23.320Z,10.02
2023-10-29T01:07:26.092Z,10.01
2023-10-29T01:08:29.191Z,10.03
2023-10-29T01:09:31.776Z,10.04
2023-10-29T01:10:34.364Z,9.95
2023-10-29T01:11:36.676Z,10.01
2023-10-29T01:12:39.836Z,9.99
2023-10-29T01:13:42.499Z,9.95
2023-10-29T01:14:45.618Z,9.97
2023-10-29T01:15:48.238Z,10.01
2023-10-29T01:16:50.674Z,9.94
2023-10-29T01:17:53.248Z,9.92
2023-10-29T01:18:59.464Z,9.91
2023-10-29T01:20:04.736Z,9.96
2023-10-29T01:21:10.014Z,10.03
2023-10-29T01:22:12.444Z,10.09
2023-10-29T01:23:15.052Z,10.10
2023-10-29T01:24:17.249Z,10.12
2023-10-29T01:25:19.741Z,10.04
2023-10-29T01:26:22.506Z,10.07
2023-10-29T01:27:24.843Z,10.08
2023-10-29T01:28:27.751Z,10.18
2023-10-29T01:29:31.526Z,10.25
2023-10-29T01:30:33.829Z,10.27
2023-10-29T01:31:36.303Z,10.25
2023-10-29T01:32:39.708Z,10.26
2023-10-29T01:33:42.170Z,10.26
2023-10-29T01:34:44.461Z,10.28
2023-10-29T01:35:47.121Z,10.29
2023-10-29T01:36:51.297Z,10.35
2023-10-29T01:37:53.707Z,10.29
2023-10-29T01:38:56.287Z,10.33
2023-10-29T01:39:59.139Z,10.36
2023-10-29T01:41:01.806Z,10.36
2023-10-29T01:42:04.421Z,10.42
2023-10-29T01:43:06.857Z,10.40
2023-10-29T01:44:09.085Z,10.34
2023-10-29T01:45:15.441Z,10.25
2023-10-29T01:46:17.794Z,10.30
2023-10-29T01:47:20.261Z,10.33
2023-10-29T01:48:25.149Z,10.40
2023-10-29T01:49:28.176Z,10.35
2023-10-29T01:50:30.793Z,10.33
2023-10-29T01:51:33.090Z,10.27
2023-10-29T01:52:38.584Z,10.32
2023-10-29T01:53:41.275Z,10.32
2023-10-29T01:54:45.086Z,10.30
2023-10-29T01:55:47.750Z,10.34
2023-10-29T01:56:50.095Z,10.36
2023-10-29T01:57:52.370Z,10.41
2023-10-29T01:58:54.998Z,10.33
2023-10-29T01:59:59.680Z,10.33
2023-10-29T02:01:02.384Z,10.41
2023-10-29T02:02:05.423Z,10.36
2023-10-29T02:03:07.738Z,10.31
2023-10-29T02:04:13.584Z,10.39
2023-10-29T02:05:16.028Z,10.43
2023-10-29T02:06:19.195Z,10.49
2023-10-29T02:07:21.695Z,10.58
2023-10-29T02:08:24.191Z,10.64
2023-10-29T02:09:26.850Z,10.55
2023-10-29T02:10:29.273Z,10.46
2023-10-29T02:11:31.748Z,10.51
2023-10-29T02:12:34.121Z,10.53
2023-10-29T02:13:36.350Z,10.51
2023-10-29T02:14:41.430Z,10.57
2023-10-29T02:15:44.634Z,10.49
2023-10-29T02:16:47.998Z,10.49
2023-10-29T02:17:50.782Z,10.50
2023-10-29T02:18:53.089Z,10.52
2023-10-29T02:19:56.914Z,10.49
2023-10-29T02:20:59.220Z,10.53
2023-10-29T02:22:01.461Z,10.48
2023-10-29T02:23:03.978Z,10.51
2023-10-29T02:24:06.512Z,10.52
2023-10-29T02:25:10.039Z,10.53
2023-10-29T02:26:12.298Z,10.55
2023-10-29T02:27:14.569Z,10.53
2023-10-29T02:28:16.920Z,10.61
2023-10-29T02:29:19.504Z,10.58
2023-10-29T02:30:21.901Z,10.59
2023-10-29T02:31:25.427Z,10.60
2023-10-29T02:32:27.732Z,10.57
2023-10-29T02:33:31.742Z,10.60
2023-10-29T02:34:34.498Z,10.52
2023-10-29T02:35:36.856Z,10.53
2023-10-29T02:36:39.274Z,10.49
2023-10-29T02:37:41.682Z,10.58
2023-10-29T02:38:44.435Z,10.55
2023-10-29T02:39:49.399Z,10.55
2023-10-29T02:40:51.741Z,10.54
2023-10-29T02:41:54.338Z,10.53
2023-10-29T02:42:56.857Z,10.56
2023-10-29T02:43:59.672Z,10.52
2023-10-29T02:45:02.115Z,10.55
2023-10-29T02:46:05.068Z,10.57
2023-10-29T02:47:07.335Z,10.67
2023-10-29T02:48:09.923Z,10.66
2023-10-29T02:49:12.373Z,10.67
2023-10-29T02:50:15.221Z,10.66
2023-10-29T02:51:17.833Z,10.70
2023-10-29T02:52:20.787Z,10.72
2023-10-29T02:53:23.298Z,10.77
2023-10-29T02:54:26.666Z,10.83
2023-10-29T02:55:29.069Z,10.87
2023-10-29T02:56:31.883Z,10.92
2023-10-29T02:57:34.147Z,10.93
2023-10-29T02:58:36.664Z,11.02
2023-10-29T02:59:39.262Z,11.06
2023-10-29T03:00:42.165Z,11.04
2023-10-29T03:01:44.955Z,11.10
2023-10-29T03:02:48.096Z,11.12
2023-10-29T03:03:50.598Z,11.18
2023-10-29T03:04:53.167Z,11.21
2023-10-29T03:05:57.439Z,11.27
2023-10-29T03:07:00.059Z,11.33
2023-10-29T03:08:03.167Z,11.36
2023-10-29T03:09:06.254Z,11.40
2023-10-29T03:10:08.802Z,11.35
2023-10-29T03:11:12.994Z,11.33
2023-10-29T03:12:15.245Z,11.33
2023-10-29T03:13:17.937Z,11.39
2023-10-29T03:14:20.148Z,11.42
2023-10-29T03:15:22.582Z,11.40
2023-10-29T03:16:24.871Z,11.45
2023-10-29T03:17:27.691Z,11.43
2023-10-29T03:18:30.871Z,11.53
2023-10-29T03:19:33.171Z,11.59
2023-10-29T03:20:35.840Z,11.53
2023-10-29T03:21:38.112Z,11.51
2023-10-29T03:22:40.534Z,11.49
2023-10-29T03:23:44.171Z,11.48
2023-10-29T03:24:46.710Z,11.52
2023-10-29T03:25:49.829Z,11.51
2023-10-29T03:26:52.848Z,11.49
2023-10-29T03:27:55.278Z,11.39
2023-10-29T03:28:57.532Z,11.41
2023-10-29T03:30:01.077Z,11.38
2023-10-29T03:31:03.630Z,11.40
2023-10-29T03:32:06.149Z,11.39
2023-10-29T03:33:08.778Z,11.41
2023-10-29T03:34:12.457Z,11.43
2023-10-29T03:35:14.905Z,11.44
2023-10-29T03:36:17.329Z,11.45
2023-10-29T03:37:19.668Z,11.41
2023-10-29T03:38:22.310Z,11.38
2023-10-29T03:39:24.667Z,11.37
2023-10-29T03:40:27.085Z,11.39
2023-10-29T03:41:30.875Z,11.39
2023-10-29T03:42:33.896Z,11.41
2023-10-29T03:43:36.117Z,11.37
2023-10-29T03:44:38.340Z,11.38
2023-10-29T03:45:40.881Z,11.38
2023-10-29T03:46:43.462Z,11.43
2023-10-29T03:47:46.541Z,11.40
2023-10-29T03:48:48.988Z,11.37
2023-10-29T03:49:51.517Z,11.41
2023-10-29T03:50:54.025Z,11.32
2023-10-29T03:51:56.285Z,11.26
2023-10-29T03:52:58.540Z,11.31
2023-10-29T03:54:00.875Z,11.27
2023-10-29T03:55:03.170Z,11.27
2023-10-29T03:56:06.143Z,11.23
2023-10-29T03:57:08.762Z,11.23
2023-10-29T03:58:11.068Z,11.22
2023-10-29T03:59:13.314Z,11.23
2023-10-29T04:00:15.688Z,11.20
2023-10-29T04:01:18.230Z,11.27
2023-10-29T04:02:20.492Z,11.26
2023-10-29T04:03:22.723Z,11.27
2023-10-29T04:04:25.203Z,11.26
2023-10-29T04:05:28.162Z,11.25
2023-10-29T04:06:31.919Z,11.28
2023-10-29T04:07:34.164Z,11.32
2023-10-29T04:08:36.929Z,11.27
2023-10-29T04:09:39.380Z,11.29
2023-10-29T04:10:41.597Z,11.32
2023-10-29T04:11:44.912Z,11.35
2023-10-29T04:12:47.129Z,11.33
2023-10-29T04:13:49.365Z,11.33
2023-10-29T04:14:51.797Z,11.31
2023-10-29T04:15:54.076Z,11.25
2023-10-29T04:16:56.534Z,11.28
2023-10-29T04:17:58.918Z,11.16
2023-10-29T04:19:01.792Z,11.23
2023-10-29T04:20:07.051Z,11.25
2023-10-29T04:21:09.363Z,11.24
2023-10-29T04:22:11.782Z,11.26
2023-10-29T04:23:14.029Z,11.30
2023-10-29T04:24:16.232Z,11.31
2023-10-29T04:25:18.747Z,11.29
2023-10-29T04:26:21.062Z,11.31
2023-10-29T04:27:23.546Z,11.30
2023-10-29T04:28:26.153Z,11.20
2023-10-29T04:29:28.497Z,11.13
2023-10-29T04:30:30.797Z,11.14
2023-10-29T04:31:33.323Z,11.18
2023-10-29T04:32:35.844Z,11.19
2023-10-29T04:34:41.511Z,11.22
2023-10-29T04:35:43.755Z,11.20
2023-10-29T04:36:49.550Z,11.19
2023-10-29T04:37:52.255Z,11.19
2023-10-29T04:38:54.613Z,11.24
2023-10-29T04:39:57.584Z,11.28
2023-10-29T04:40:59.899Z,11.29
2023-10-29T04:42:02.930Z,11.24
2023-10-29T04:43:05.228Z,11.28
2023-10-29T04:44:07.683Z,11.33
2023-10-29T04:45:12.202Z,11.29
2023-10-29T04:46:14.641Z,11.36
2023-10-29T04:47:18.136Z,11.36
2023-10-29T04:48:20.552Z,11.31
2023-10-29T04:49:23.048Z,11.26
2023-10-29T04:50:25.289Z,11.23
2023-10-29T04:51:28.471Z,11.28
2023-10-29T04:52:30.906Z,11.31
2023-10-29T04:53:36.626Z,11.28
2023-10-29T04:54:39.086Z,11.35
2023-10-29T04:55:41.405Z,11.33
2023-10-29T04:56:43.838Z,11.38
2023-10-29T04:57:46.272Z,11.35
2023-10-29T04:58:48.763Z,11.43
2023-10-29T04:59:51.322Z,11.47
2023-10-29T05:00:54.109Z,11.48
2023-10-29T05:01:56.636Z,11.47
2023-10-29T05:02:59.106Z,11.42
2023-10-29T05:04:01.566Z,11.42
2023-10-29T05:05:04.977Z,11.50
2023-10-29T05:06:07.260Z,11.53
2023-10-29T05:07:09.708Z,11.55
2023-10-29T05:08:12.145Z,11.55
2023-10-29T05:09:14.375Z,11.43
2023-10-29T05:10:16.778Z,11.43
2023-10-29T05:11:19.090Z,11.46
2023-10-29T05:12:21.516Z,11.40
2023-10-29T05:13:23.925Z,11.34
2023-10-29T05:14:26.268Z,11.39
2023-10-29T05:15:28.814Z,11.46
2023-10-29T05:16:31.098Z,11.49
2023-10-29T05:17:33.382Z,11.49
2023-10-29T05:18:36.083Z,11.47
2023-10-29T05:19:40.201Z,11.50
2023-10-29T05:20:42.695Z,11.47
2023-10-29T05:21:45.557Z,11.53
2023-10-29T05:22:47.959Z,11.61
2023-10-29T05:23:50.435Z,11.65
2023-10-29T05:24:52.663Z,11.61
2023-10-29T05:25:55.470Z,11.59
2023-10-29T05:26:57.912Z,11.56
2023-10-29T05:28:00.441Z,11.60
2023-10-29T05:29:02.819Z,11.57
2023-10-29T05:30:08.895Z,11.58
2023-10-29T05:31:11.420Z,11.53
2023-10-29T05:32:13.847Z,11.58
2023-10-29T05:33:16.419Z,11.62
2023-10-29T05:34:18.851Z,11.61
2023-10-29T05:35:22.356Z,11.52
2023-10-29T05:36:24.793Z,11.62
2023-10-29T05:37:27.266Z,11.66
2023-10-29T05:38:29.715Z,11.68
2023-10-29T05:39:32.089Z,11.59
2023-10-29T05:40:34.752Z,11.53
2023-10-29T05:41:37.120Z,11.61
2023-10-29T05:42:39.635Z,11.57
2023-10-29T05:43:42.288Z,11.63
2023-10-29T05:44:44.572Z,11.65
2023-10-29T05:45:47.215Z,11.63
2023-10-29T05:46:49.734Z,11.61
2023-10-29T05:47:52.021Z,11.67
2023-10-29T05:48:54.588Z,11.71
2023-10-29T05:49:56.833Z,11.70
2023-10-29T05:50:59.160Z,11.70
2023-10-29T05:52:01.692Z,11.67
2023-10-29T05:53:03.962Z,11.74
2023-10-29T05:54:06.536Z,11.72
2023-10-29T05:55:09.029Z,11.76
2023-10-29T05:56:11.467Z,11.76
2023-10-29T05:57:14.077Z,11.78
2023-10-29T05:58:16.339Z,11.76
2023-10-29T05:59:20.073Z,11.79
2023-10-29T06:00:22.834Z,11.78
2023-10-29T06:01:25.101Z,11.77
2023-10-29T06:02:27.942Z,11.82
2023-10-29T06:03:30.374Z,11.89
2023-10-29T06:04:33.028Z,11.91
2023-10-29T06:05:35.382Z,11.93
2023-10-29T06:06:37.616Z,11.98
2023-10-29T06:07:45.162Z,11.90
2023-10-29T06:08:47.801Z,11.90
2023-10-29T06:09:50.130Z,11.98
2023-10-29T06:10:52.409Z,11.90
2023-10-29T06:11:54.677Z,11.90
2023-10-29T06:12:57.619Z,11.93
2023-10-29T06:14:00.187Z,11.98
2023-10-29T06:15:02.708Z,11.89
2023-10-29T06:16:09.647Z,11.92
2023-10-29T06:17:25.705Z,11.95
2023-10-29T06:18:29.510Z,12.01
2023-10-29T06:19:33.637Z,12.04
2023-10-29T06:20:35.896Z,12.00
2023-10-29T06:21:38.261Z,12.02
2023-10-29T06:22:40.491Z,12.03
2023-10-29T06:23:43.225Z,12.06
2023-10-29T06:24:45.880Z,12.07
2023-10-29T06:25:48.322Z,12.08
2023-10-29T06:26:50.509Z,12.14
2023-10-29T06:27:53.085Z,12.16
2023-10-29T06:28:55.273Z,12.14
2023-10-29T06:29:57.864Z,12.15
2023-10-29T06:31:00.680Z,12.17
2023-10-29T06:32:03.152Z,12.18
2023-10-29T06:33:05.633Z,12.19
2023-10-29T06:34:08.258Z,12.14
2023-10-29T06:35:10.596Z,12.22
2023-10-29T06:36:13.021Z,12.17
2023-10-29T06:37:15.595Z,12.26
2023-10-29T06:38:17.987Z,12.27
2023-10-29T06:39:20.390Z,12.31
2023-10-29T06:40:22.822Z,12.32
2023-10-29T06:41:25.242Z,12.28
2023-10-29T06:42:27.552Z,12.29
2023-10-29T06:43:29.965Z,12.33
2023-10-29T06:44:32.401Z,12.29
2023-10-29T06:45:34.745Z,12.32
2023-10-29T06:46:37.186Z,12.30
2023-10-29T06:47:39.522Z,12.34
2023-10-29T06:48:43.095Z,12.35
2023-10-29T06:49:45.600Z,12.35
2023-10-29T06:50:47.863Z,12.30
2023-10-29T06:53:19.234Z,12.38
2023-10-29T06:54:21.676Z,12.41
2023-10-29T06:55:27.226Z,12.42
2023-10-29T06:56:29.564Z,12.42
2023-10-29T06:57:31.965Z,12.49
2023-10-29T06:58:34.508Z,12.38
2023-10-29T06:59:36.711Z,12.44
2023-10-29T07:00:39.229Z,12.45
2023-10-29T07:01:41.494Z,12.50
2023-10-29T07:02:43.865Z,12.44
2023-10-29T07:03:46.953Z,12.35
2023-10-29T07:04:50.176Z,12.33
2023-10-29T07:05:52.613Z,12.39
2023-10-29T07:06:55.092Z,12.39
2023-10-29T07:07:57.447Z,12.41
2023-10-29T07:09:00.578Z,12.42
2023-10-29T07:10:05.402Z,12.42
2023-10-29T07:11:07.739Z,12.47
2023-10-29T07:12:10.139Z,12.51
2023-10-29T07:13:12.723Z,12.49
2023-10-29T07:14:15.102Z,12.54
2023-10-29T07:15:17.843Z,12.60
2023-10-29T07:16:20.110Z,12.67
2023-10-29T07:17:23.776Z,12.69
2023-10-29T07:18:26.434Z,12.69
2023-10-29T07:19:28.713Z,12.59
2023-10-29T07:20:31.375Z,12.59
2023-10-29T07:21:33.600Z,12.60
2023-10-29T07:22:36.789Z,12.58
2023-10-29T07:23:39.009Z,12.59
2023-10-29T07:24:41.223Z,12.61
2023-10-29T07:25:43.832Z,12.65
2023-10-29T07:26:46.092Z,12.66
2023-10-29T07:27:48.402Z,12.60
2023-10-29T07:28:50.604Z,12.61
2023-10-29T07:29:52.894Z,12.64
2023-10-29T07:30:56.862Z,12.65
2023-10-29T07:31:59.097Z,12.55
2023-10-29T07:33:01.596Z,12.60
2023-10-29T07:34:04.008Z,12.68
2023-10-29T07:35:06.371Z,12.67
2023-10-29T07:36:09.376Z,12.61
2023-10-29T07:37:13.492Z,12.64
2023-10-29T07:38:15.983Z,12.68
2023-10-29T07:39:18.369Z,12.76
2023-10-29T07:40:20.639Z,12.84
2023-10-29T07:41:23.631Z,12.84
2023-10-29T07:42:26.101Z,12.79
2023-10-29T07:43:28.814Z,12.83
2023-10-29T07:44:31.057Z,12.79
2023-10-29T07:45:33.352Z,12.84
2023-10-29T07:46:36.218Z,12.87
2023-10-29T07:47:38.628Z,12.91
2023-10-29T07:48:41.548Z,12.93
2023-10-29T07:49:43.787Z,13.02
2023-10-29T07:50:52.311Z,13.04
2023-10-29T07:51:54.904Z,13.03
2023-10-29T07:52:57.234Z,13.07
2023-10-29T07:54:01.081Z,13.12
2023-10-29T07:55:03.852Z,13.13
2023-10-29T07:56:14.576Z,13.12
2023-10-29T07:57:16.822Z,13.15
2023-10-29T07:58:19.785Z,13.26
2023-10-29T07:59:22.492Z,13.26
2023-10-29T08:00:24.700Z,13.33
2023-10-29T08:01:27.403Z,13.39
2023-10-29T08:02:31.166Z,13.40
2023-10-29T08:03:33.532Z,13.42
2023-10-29T08:04:36.063Z,13.41
2023-10-29T08:05:38.337Z,13.40
2023-10-29T08:06:40.983Z,13.38
2023-10-29T08:07:43.226Z,13.39
2023-10-29T08:08:45.490Z,13.44
2023-10-29T08:09:47.956Z,13.47
2023-10-29T08:10:50.274Z,13.50
2023-10-29T08:11:53.007Z,13.53
2023-10-29T08:12:55.228Z,13.52
2023-10-29T08:13:58.077Z,13.58
2023-10-29T08:15:00.557Z,13.65
2023-10-29T08:16:04.016Z,13.71
2023-10-29T08:17:06.861Z,13.63
2023-10-29T08:18:09.205Z,13.61
2023-10-29T08:19:11.831Z,13.59
2023-10-29T08:20:14.285Z,13.63
2023-10-29T08:21:16.575Z,13.63
2023-10-29T08:22:19.457Z,13.59
2023-10-29T08:23:21.664Z,13.63
2023-10-29T08:24:23.892Z,13.61
2023-10-29T08:25:26.299Z,13.59
2023-10-29T08:26:30.673Z,13.60
2023-10-29T08:27:33.127Z,13.65
2023-10-29T08:28:37.106Z,13.69
2023-10-29T08:29:41.175Z,13.61
2023-10-29T08:30:43.695Z,13.59
2023-10-29T08:31:45.956Z,13.51
2023-10-29T08:32:48.439Z,13.50
2023-10-29T08:33:50.719Z,13.50
2023-10-29T08:34:52.974Z,13.58
2023-10-29T08:35:55.513Z,13.57
2023-10-29T08:36:58.236Z,13.51
2023-10-29T08:38:00.487Z,13.51
2023-10-29T08:39:03.152Z,13.51
2023-10-29T08:40:06.285Z,13.53
2023-10-29T08:41:18.262Z,13.53
2023-10-29T08:42:20.662Z,13.61
2023-10-29T08:43:22.874Z,13.65
2023-10-29T08:44:25.210Z,13.63
2023-10-29T08:45:41.017Z,13.66
2023-10-29T08:46:44.676Z,13.64
2023-10-29T08:47:47.146Z,13.62
2023-10-29T08:48:49.428Z,13.68
2023-10-29T08:49:51.929Z,13.70
2023-10-29T08:50:54.333Z,13.73
2023-10-29T08:51:56.604Z,13.69
2023-10-29T08:52:59.522Z,13.73
2023-10-29T08:54:03.943Z,13.78
2023-10-29T08:55:08.044Z,13.70
2023-10-29T08:56:10.464Z,13.73
2023-10-29T08:57:12.871Z,13.75
2023-10-29T08:58:15.960Z,13.73
2023-10-29T08:59:18.275Z,13.71
2023-10-29T09:00:20.490Z,13.69
2023-10-29T09:01:33.635Z,13.72
2023-10-29T09:02:35.973Z,13.74
2023-10-29T09:03:38.494Z,13.77
2023-10-29T09:04:40.930Z,13.81
2023-10-29T09:05:44.219Z,13.73
2023-10-29T09:06:46.850Z,13.81
2023-10-29T09:07:49.271Z,13.79
2023-10-29T09:08:52.261Z,13.86
2023-10-29T09:09:55.175Z,13.86
2023-10-29T09:10:57.420Z,13.95
2023-10-29T09:11:59.783Z,13.95
2023-10-29T09:13:02.219Z,13.97
2023-10-29T09:14:04.845Z,13.99
2023-10-29T09:15:08.105Z,14.00
2023-10-29T09:16:10.811Z,13.98
2023-10-29T09:17:13.929Z,14.00
2023-10-29T09:18:16.510Z,14.03
2023-10-29T09:19:18.833Z,14.06
2023-10-29T09:20:21.068Z,14.07
2023-10-29T09:21:23.499Z,14.02
2023-10-29T09:22:25.781Z,13.98
2023-10-29T09:23:31.112Z,14.02
2023-10-29T09:24:33.398Z,14.11
2023-10-29T09:25:35.617Z,14.12
2023-10-29T09:26:38.078Z,14.19
2023-10-29T09:27:42.224Z,14.18
2023-10-29T09:28:44.742Z,14.12
2023-10-29T09:29:47.675Z,14.23
2023-10-29T09:30:50.129Z,14.29
2023-10-29T09:31:53.404Z,14.39
2023-10-29T09:32:58.128Z,14.49
2023-10-29T09:34:02.385Z,14.54
2023-10-29T09:35:05.903Z,14.58
2023-10-29T09:36:09.122Z,14.71
2023-10-29T09:37:11.620Z,14.79
2023-10-29T09:38:14.120Z,14.86
2023-10-29T09:39:16.361Z,14.91
2023-10-29T09:40:20.070Z,14.90
2023-10-29T09:41:22.319Z,14.82
2023-10-29T09:42:30.254Z,14.80
2023-10-29T09:43:39.921Z,14.82
2023-10-29T09:44:43.640Z,14.89
2023-10-29T09:45:48.864Z,14.93
2023-10-29T09:46:58.275Z,14.89
2023-10-29T09:48:00.854Z,14.92
2023-10-29T09:49:05.479Z,14.87
2023-10-29T09:50:09.614Z,14.88
2023-10-29T09:51:11.959Z,15.00
2023-10-29T09:52:15.010Z,15.04
2023-10-29T09:53:19.253Z,15.03
2023-10-29T09:54:21.821Z,15.05
2023-10-29T09:55:24.393Z,15.08
2023-10-29T09:56:28.060Z,15.09
2023-10-29T09:57:31.260Z,15.05
2023-10-29T09:58:35.211Z,15.01
2023-10-29T09:59:37.757Z,15.05
2023-10-29T10:00:40.417Z,15.10
2023-10-29T10:01:57.577Z,15.17
2023-10-29T10:03:01.604Z,15.21
2023-10-29T10:04:04.607Z,15.29
2023-10-29T10:05:11.151Z,15.39
2023-10-29T10:06:19.364Z,15.42
2023-10-29T10:07:23.713Z,15.36
2023-10-29T10:08:27.592Z,15.44
2023-10-29T10:09:56.633Z,15.56
2023-10-29T10:10:59.854Z,15.52
2023-10-29T10:12:05.900Z,15.41
2023-10-29T10:13:09.901Z,15.41
2023-10-29T10:14:28.118Z,15.44
2023-10-29T10:15:30.327Z,15.47
2023-10-29T10:16:33.082Z,15.45
2023-10-29T10:17:35.384Z,15.37
2023-10-29T10:18:51.975Z,15.34
2023-10-29T10:20:07.894Z,15.32
2023-10-29T10:21:10.218Z,15.30
2023-10-29T10:22:12.998Z,15.26
2023-10-29T10:23:15.415Z,15.22
2023-10-29T10:24:18.318Z,15.19
2023-10-29T10:25:24.811Z,15.25
2023-10-29T10:26:28.191Z,15.27
2023-10-29T10:27:31.128Z,15.24
2023-10-29T10:28:33.937Z,15.28
2023-10-29T10:29:36.773Z,15.29
2023-10-29T10:30:40.131Z,15.34
2023-10-29T10:31:42.746Z,15.32
2023-10-29T10:32:46.321Z,15.38
2023-10-29T10:33:50.321Z,15.40
2023-10-29T10:34:53.396Z,15.44
2023-10-29T10:35:56.366Z,15.40
2023-10-29T10:37:01.781Z,15.31
2023-10-29T10:38:04.620Z,15.30
2023-10-29T10:39:07.140Z,15.26
2023-10-29T10:40:27.619Z,15.26
2023-10-29T10:41:46.394Z,15.35
2023-10-29T10:42:55.426Z,15.36
2023-10-29T10:44:27.812Z,15.38
2023-10-29T10:45:32.830Z,15.34
2023-10-29T10:46:37.899Z,15.26
2023-10-29T10:47:40.371Z,15.28
2023-10-29T10:48:43.505Z,15.28
2023-10-29T10:49:47.531Z,15.26
2023-10-29T10:50:54.571Z,15.24
2023-10-29T10:51:59.278Z,15.25
2023-10-29T10:53:02.150Z,15.20
2023-10-29T10:54:05.945Z,15.23
2023-10-29T10:55:17.841Z,15.26
2023-10-29T10:56:36.989Z,15.18
2023-10-29T10:57:39.547Z,15.17
2023-10-29T10:58:43.415Z,15.18
2023-10-29T10:59:46.160Z,15.14
2023-10-29T11:00:51.143Z,15.13
2023-10-29T11:01:53.459Z,15.07
2023-10-29T11:02:58.440Z,15.13
2023-10-29T11:04:03.170Z,15.11
2023-10-29T11:05:07.065Z,15.10
2023-10-29T11:06:12.308Z,15.03
2023-10-29T11:07:14.645Z,15.00
2023-10-29T11:08:17.787Z,15.05
2023-10-29T11:09:20.974Z,15.07
2023-10-29T11:10:24.464Z,15.12
2023-10-29T11:11:34.862Z,15.15
2023-10-29T11:12:37.831Z,15.09
2023-10-29T11:13:40.373Z,15.08
2023-10-29T11:15:22.054Z,15.09
2023-10-29T11:16:26.387Z,15.09
2023-10-29T11:17:56.878Z,15.06
2023-10-29T11:19:01.853Z,15.02
2023-10-29T11:20:04.432Z,15.11
2023-10-29T11:21:07.103Z,15.18
2023-10-29T11:22:23.346Z,15.19
2023-10-29T11:23:30.116Z,15.08
2023-10-29T11:24:32.564Z,15.11
2023-10-29T11:25:35.546Z,15.11
2023-10-29T11:26:38.019Z,15.16
2023-10-29T11:27:44.600Z,15.21
2023-10-29T11:28:47.063Z,15.29
2023-10-29T11:29:49.532Z,15.27
2023-10-29T11:31:16.697Z,15.17
2023-10-29T11:32:27.020Z,15.22
2023-10-29T11:33:29.372Z,15.30
2023-10-29T11:34:31.649Z,15.30
2023-10-29T11:35:35.053Z,15.41
2023-10-29T11:36:43.101Z,15.41
2023-10-29T11:37:45.476Z,15.51
2023-10-29T11:38:47.824Z,15.64
2023-10-29T11:39:50.093Z,15.70
2023-10-29T11:40:52.538Z,15.71
2023-10-29T11:41:55.744Z,15.71
2023-10-29T11:43:14.840Z,15.71
2023-10-29T11:44:19.986Z,15.78
2023-10-29T11:45:33.043Z,15.87
2023-10-29T11:47:00.192Z,15.85
2023-10-29T11:48:09.969Z,15.90
2023-10-29T11:49:12.308Z,15.89
2023-10-29T11:50:14.737Z,15.90
2023-10-29T11:51:18.934Z,15.95
2023-10-29T11:52:21.348Z,15.90
2023-10-29T11:53:27.369Z,15.95
2023-10-29T11:54:30.709Z,16.00
2023-10-29T11:56:07.183Z,15.93
2023-10-29T11:57:10.565Z,15.92
2023-10-29T11:58:12.782Z,15.88
2023-10-29T11:59:15.087Z,15.94
2023-10-29T12:00:17.471Z,15.96
2023-10-29T12:01:20.602Z,15.91
2023-10-29T12:02:23.542Z,15.95
2023-10-29T12:03:27.198Z,16.01
2023-10-29T12:04:31.269Z,16.07
2023-10-29T12:05:33.713Z,16.00
2023-10-29T12:06:45.540Z,15.96
2023-10-29T12:07:47.980Z,15.97
2023-10-29T12:08:50.334Z,15.94
2023-10-29T12:10:07.272Z,15.98
2023-10-29T12:11:09.653Z,15.93
2023-10-29T12:12:12.714Z,15.88
2023-10-29T12:13:18.236Z,15.88
2023-10-29T12:14:48.212Z,15.88
2023-10-29T12:15:58.656Z,15.94
2023-10-29T12:17:01.761Z,15.93
2023-10-29T12:18:04.535Z,15.95
2023-10-29T12:19:07.884Z,15.94
2023-10-29T12:20:21.590Z,15.91
2023-10-29T12:21:23.836Z,15.97
2023-10-29T12:22:31.970Z,15.99
2023-10-29T12:23:36.621Z,16.06
2023-10-29T12:24:39.143Z,16.07
2023-10-29T12:25:42.325Z,16.11
2023-10-29T12:26:44.606Z,16.20
2023-10-29T12:27:47.178Z,16.19
2023-10-29T12:28:50.726Z,16.18
2023-10-29T12:29:53.929Z,16.22
2023-10-29T12:30:57.853Z,16.21
2023-10-29T12:32:00.180Z,16.27
2023-10-29T12:33:21.300Z,16.39
2023-10-29T12:34:23.680Z,16.39
2023-10-29T12:35:36.760Z,16.31
2023-10-29T12:36:39.725Z,16.34
2023-10-29T12:37:41.945Z,16.32
2023-10-29T12:38:44.627Z,16.35
2023-10-29T12:39:48.085Z,16.29
2023-10-29T12:41:14.263Z,16.34
2023-10-29T12:42:16.883Z,16.29
2023-10-29T12:43:42.496Z,16.20
2023-10-29T12:44:57.684Z,16.24
2023-10-29T12:46:05.223Z,16.24
2023-10-29T12:47:08.225Z,16.18
2023-10-29T12:48:11.770Z,16.20
2023-10-29T12:49:14.346Z,16.18
2023-10-29T12:50:16.835Z,16.22
2023-10-29T12:51:23.711Z,16.26
2023-10-29T12:52:27.384Z,16.17
2023-10-29T12:53:34.374Z,16.16
2023-10-29T12:54:43.847Z,16.19
2023-10-29T12:55:47.013Z,16.18
2023-10-29T12:57:03.183Z,16.12
2023-10-29T12:58:05.512Z,16.20
2023-10-29T12:59:08.959Z,16.18
2023-10-29T13:00:13.613Z,16.16
2023-10-29T13:01:16.558Z,16.10
2023-10-29T13:02:23.738Z,16.08
2023-10-29T13:03:26.395Z,16.04
2023-10-29T13:04:28.984Z,16.02
2023-10-29T13:05:32.509Z,15.99
2023-10-29T13:06:34.936Z,15.98
2023-10-29T13:07:41.037Z,16.04
2023-10-29T13:08:43.263Z,16.08
2023-10-29T13:09:46.210Z,16.08
2023-10-29T13:10:48.443Z,16.03
2023-10-29T13:11:53.176Z,16.00
2023-10-29T13:12:55.471Z,15.89
2023-10-29T13:14:08.233Z,15.93
2023-10-29T13:15:11.749Z,15.93
2023-10-29T13:16:14.148Z,15.92
2023-10-29T13:17:16.556Z,15.99
2023-10-29T13:18:20.413Z,15.95
2023-10-29T13:19:23.967Z,15.97
2023-10-29T13:20:27.922Z,15.86
2023-10-29T13:21:31.116Z,15.78
2023-10-29T13:22:33.571Z,15.79
2023-10-29T13:23:35.866Z,15.77
2023-10-29T13:24:38.445Z,15.82
2023-10-29T13:25:41.781Z,15.82
2023-10-29T13:26:44.363Z,15.86
2023-10-29T13:27:46.853Z,15.86
2023-10-29T13:28:50.891Z,15.83
2023-10-29T13:29:53.252Z,15.89
2023-10-29T13:30:56.444Z,15.83
2023-10-29T13:31:59.891Z,15.86
2023-10-29T13:33:02.220Z,15.80
2023-10-29T13:34:09.823Z,15.83
2023-10-29T13:35:12.539Z,15.86
2023-10-29T13:36:16.165Z,15.86
2023-10-29T13:37:19.461Z,15.84
2023-10-29T13:38:21.969Z,15.78
2023-10-29T13:39:24.211Z,15.84
2023-10-29T13:40:26.928Z,15.85
2023-10-29T13:41:29.160Z,15.82
2023-10-29T13:42:31.588Z,15.82
2023-10-29T13:43:34.213Z,15.76
2023-10-29T13:44:40.269Z,15.81